Time;durP1;ratioP1;P1;durP2;ratioP2;P2;SDS_P1;SDS_P2;PMS_P1;PMS_P2;Temp;Humidity;BMP_temperature;BMP_pressure;BME280_temperature;BME280_humidity;BME280_pressure;Samples;Min_cycle;Max_cycle;Signal;HPM_P1;HPM_P2
2022/09/19 00:00:54;;;;;;;;;;;;;;;;;;5034595;28;20298;-63
2022/09/19 00:03:22;;;;;;;;;;;;;;;;;;5034959;28;19925;-63
2022/09/19 00:05:49;;;;;;;;;;;;;;;;;;5035112;28;19933;-64
2022/09/19 00:08:15;;;;;;;;;;;;;;;;;;5034846;28;20402;-63
2022/09/19 00:10:43;;;;;;;;;;;;;;;;;;5034115;28;19928;-63
2022/09/19 00:13:09;;;;;;;;;;;;;;;;;;5035478;28;19929;-63
2022/09/19 00:15:36;;;;;;;;;;;;;;;;;;5035589;28;19947;-64
2022/09/19 00:18:03;;;;;;;;;;;;;;;;;;5035265;28;19929;-63
2022/09/19 00:20:33;;;;;;;;;;;;;;;;;;5034346;28;20026;-63
2022/09/19 00:25:43;;;;;;;;;;;;;;;;;;5034709;28;20368;-63
2022/09/19 00:28:10;;;;;;;;;;;;;;;;;;5034497;28;19978;-63
2022/09/19 00:30:39;;;;;;;;;;;;;;;;;;5034306;28;19925;-63
2022/09/19 00:33:06;;;;;;;;;;;;;;;;;;5034683;28;19925;-64
2022/09/19 00:35:34;;;;;;;;;;;;;;;;;;5033927;28;19933;-62
2022/09/19 00:38:01;;;;;;;;;;;;;;;;;;5034969;28;19929;-63
2022/09/19 00:40:28;;;;;;;;;;;;;;;;;;5033953;28;20428;-63
2022/09/19 00:42:54;;;;;;;;;;;;;;;;;;5034942;28;20365;-62
2022/09/19 00:45:21;;;;;;;;;;;;;;;;;;5034945;28;19929;-63
2022/09/19 00:47:49;;;;;;;;;;;;;;;;;;5034180;28;19933;-62
2022/09/19 00:50:21;;;;;;;;;;;;;;;;;;5033800;28;19925;-64
2022/09/19 00:52:50;;;;;;;;;;;;;;;;;;5034232;28;19936;-62
2022/09/19 00:55:17;;;;;;;;;;;;;;;;;;5034089;28;19929;-63
2022/09/19 00:57:50;;;;;;;;;;;;;;;;;;5034368;28;19971;-65
2022/09/19 01:00:16;;;;;;;;;;;;;;;;;;5033117;28;19952;-62
2022/09/19 01:02:43;;;;;;;;;;;;;;;;;;5033942;28;19928;-63
2022/09/19 01:05:11;;;;;;;;;;;;;;;;;;5034261;28;19925;-63
2022/09/19 01:07:44;;;;;;;;;;;;;;;;;;5048927;22;19924;-59
2022/09/19 01:10:20;;;;;;;;;;;;;;;;;;5059034;28;19925;-60
2022/09/19 01:12:51;;;;;;;;;;;;;;;;;;5071695;28;19929;-60
2022/09/19 01:15:28;;;;;;;;;;;;;;;;;;5079659;28;19931;-61
2022/09/19 01:17:57;;;;;;;;;;;;;;;;;;5068121;28;19928;-60
2022/09/19 01:20:38;;;;;;;;;;;;;;;;;;5072212;28;19968;-59
2022/09/19 01:23:10;;;;;;;;;;;;;;;;;;5080600;28;19928;-61
2022/09/19 01:25:46;;;;;;;;;;;;;;;;;;5073524;28;20261;-61
2022/09/19 01:28:20;;;;;;;;;;;;;;;;;;5080305;28;19994;-60
2022/09/19 01:31:16;;;;;;;;;;;;;;;;;;5076893;28;20015;-61
2022/09/19 01:33:39;;;;;;;;;;;;;;;;;;5078679;28;19932;-60
2022/09/19 01:36:07;;;;;;;;;;;;;;;;;;5072594;28;19929;-59
2022/09/19 01:38:37;;;;;;;;;;;;;;;;;;5073104;28;19993;-61
2022/09/19 01:41:07;;;;;;;;;;;;;;;;;;5064183;28;19932;-57
2022/09/19 01:43:35;;;;;;;;;;;;;;;;;;5072980;28;19975;-60
2022/09/19 01:46:07;;;;;;;;;;;;;;;;;;5072697;28;19970;-59
2022/09/19 01:48:37;;;;;;;;;;;;;;;;;;5083561;28;19935;-62
2022/09/19 01:51:10;;;;;;;;;;;;;;;;;;5092634;28;19955;-60
2022/09/19 01:53:46;;;;;;;;;;;;;;;;;;5081267;28;19931;-59
2022/09/19 01:56:20;;;;;;;;;;;;;;;;;;5075572;28;20309;-61
2022/09/19 01:58:49;;;;;;;;;;;;;;;;;;5092332;28;20190;-61
2022/09/19 02:01:19;;;;;;;;;;;;;;;;;;5079209;28;19976;-61
2022/09/19 02:03:49;;;;;;;;;;;;;;;;;;5052303;28;20014;-60
2022/09/19 02:06:19;;;;;;;;;;;;;;;;;;5056622;28;19924;-61
2022/09/19 02:08:49;;;;;;;;;;;;;;;;;;5092592;28;20277;-60
2022/09/19 02:11:17;;;;;;;;;;;;;;;;;;5090638;28;20418;-60
2022/09/19 02:13:46;;;;;;;;;;;;;;;;;;5065369;28;19924;-61
2022/09/19 02:16:16;;;;;;;;;;;;;;;;;;5072676;28;19978;-61
2022/09/19 02:18:45;;;;;;;;;;;;;;;;;;5092246;28;19924;-60
2022/09/19 02:21:15;;;;;;;;;;;;;;;;;;5091718;28;19925;-60
2022/09/19 02:23:46;;;;;;;;;;;;;;;;;;5051922;28;19971;-61
2022/09/19 02:26:15;;;;;;;;;;;;;;;;;;5054684;28;19931;-60
2022/09/19 02:28:42;;;;;;;;;;;;;;;;;;5060167;28;20351;-61
2022/09/19 02:31:10;;;;;;;;;;;;;;;;;;5071303;28;19925;-61
2022/09/19 02:33:39;;;;;;;;;;;;;;;;;;5074189;28;19928;-61
2022/09/19 02:36:09;;;;;;;;;;;;;;;;;;5076102;28;20399;-60
2022/09/19 02:38:39;;;;;;;;;;;;;;;;;;5093778;28;19958;-60
2022/09/19 02:41:09;;;;;;;;;;;;;;;;;;5076331;28;19931;-61
2022/09/19 02:43:39;;;;;;;;;;;;;;;;;;5092991;28;19924;-61
2022/09/19 02:46:09;;;;;;;;;;;;;;;;;;5095958;28;19928;-61
2022/09/19 02:48:42;;;;;;;;;;;;;;;;;;5078537;28;20469;-61
2022/09/19 02:51:12;;;;;;;;;;;;;;;;;;5085945;28;19928;-60
2022/09/19 02:53:41;;;;;;;;;;;;;;;;;;5081432;28;19924;-60
2022/09/19 02:56:10;;;;;;;;;;;;;;;;;;5085204;28;19931;-61
2022/09/19 02:58:39;;;;;;;;;;;;;;;;;;5095865;28;19924;-61
2022/09/19 03:01:07;;;;;;;;;;;;;;;;;;5085842;28;20343;-61
2022/09/19 03:06:23;;;;;;;;;;;;;;;;;;5084977;28;20382;-61
2022/09/19 03:08:51;;;;;;;;;;;;;;;;;;5074813;28;19932;-61
2022/09/19 03:11:19;;;;;;;;;;;;;;;;;;5084346;28;19947;-60
2022/09/19 03:13:46;;;;;;;;;;;;;;;;;;5094965;28;20373;-61
2022/09/19 03:16:14;;;;;;;;;;;;;;;;;;5086630;28;19925;-61
2022/09/19 03:18:42;;;;;;;;;;;;;;;;;;5074716;28;20031;-60
2022/09/19 03:21:10;;;;;;;;;;;;;;;;;;5081795;28;19928;-60
2022/09/19 03:23:39;;;;;;;;;;;;;;;;;;5094861;28;19928;-59
2022/09/19 03:26:09;;;;;;;;;;;;;;;;;;5067510;28;19985;-61
2022/09/19 03:28:36;;;;;;;;;;;;;;;;;;5094738;28;19936;-61
2022/09/19 03:31:02;;;;;;;;;;;;;;;;;;5080175;28;19924;-59
2022/09/19 03:33:29;;;;;;;;;;;;;;;;;;5094766;28;19981;-61
2022/09/19 03:35:59;;;;;;;;;;;;;;;;;;5090899;28;19982;-61
2022/09/19 03:38:26;;;;;;;;;;;;;;;;;;5074661;28;19947;-60
2022/09/19 03:40:54;;;;;;;;;;;;;;;;;;5076747;28;19924;-60
2022/09/19 03:43:20;;;;;;;;;;;;;;;;;;5094396;28;19969;-60
2022/09/19 03:45:47;;;;;;;;;;;;;;;;;;5077274;28;19951;-61
2022/09/19 03:48:13;;;;;;;;;;;;;;;;;;5074395;28;19928;-60
2022/09/19 03:50:40;;;;;;;;;;;;;;;;;;5088433;28;20446;-61
2022/09/19 03:53:08;;;;;;;;;;;;;;;;;;5093969;28;19924;-60
2022/09/19 03:55:37;;;;;;;;;;;;;;;;;;5081095;28;20385;-61
2022/09/19 03:58:05;;;;;;;;;;;;;;;;;;5073814;28;19977;-61
2022/09/19 04:00:32;;;;;;;;;;;;;;;;;;5085864;28;19932;-61
2022/09/19 04:02:58;;;;;;;;;;;;;;;;;;5084982;28;19924;-60
2022/09/19 04:05:25;;;;;;;;;;;;;;;;;;5094325;28;19972;-61
2022/09/19 04:07:52;;;;;;;;;;;;;;;;;;5087764;28;19925;-61
2022/09/19 04:10:18;;;;;;;;;;;;;;;;;;5073944;28;19924;-60
2022/09/19 04:12:45;;;;;;;;;;;;;;;;;;5078639;28;19930;-60
2022/09/19 04:15:14;;;;;;;;;;;;;;;;;;5093942;28;20458;-61
2022/09/19 04:17:41;;;;;;;;;;;;;;;;;;5090551;28;19924;-61
2022/09/19 04:20:10;;;;;;;;;;;;;;;;;;5077856;28;19998;-61
2022/09/19 04:22:37;;;;;;;;;;;;;;;;;;5091582;28;19931;-60
2022/09/19 04:25:05;;;;;;;;;;;;;;;;;;5073473;28;19924;-60
2022/09/19 04:27:31;;;;;;;;;;;;;;;;;;5074427;28;19925;-61
2022/09/19 04:29:59;;;;;;;;;;;;;;;;;;5093364;28;19927;-61
2022/09/19 04:32:27;;;;;;;;;;;;;;;;;;5093961;28;20002;-61
2022/09/19 04:34:55;;;;;;;;;;;;;;;;;;5093762;28;20389;-61
2022/09/19 04:37:22;;;;;;;;;;;;;;;;;;5093494;28;19924;-60
2022/09/19 04:39:48;;;;;;;;;;;;;;;;;;5090884;28;20277;-58
2022/09/19 04:42:15;;;;;;;;;;;;;;;;;;5093718;28;20324;-60
2022/09/19 04:44:42;;;;;;;;;;;;;;;;;;5076759;28;20405;-61
2022/09/19 04:47:10;;;;;;;;;;;;;;;;;;5087259;28;19990;-59
2022/09/19 04:49:39;;;;;;;;;;;;;;;;;;5092674;28;19928;-61
2022/09/19 04:52:06;;;;;;;;;;;;;;;;;;5093721;28;19924;-61
2022/09/19 04:54:35;;;;;;;;;;;;;;;;;;5077949;28;20377;-60
2022/09/19 04:57:02;;;;;;;;;;;;;;;;;;5073083;28;19930;-58
2022/09/19 04:59:29;;;;;;;;;;;;;;;;;;5086841;28;19971;-61
2022/09/19 05:01:56;;;;;;;;;;;;;;;;;;5086419;28;20004;-60
2022/09/19 05:04:23;;;;;;;;;;;;;;;;;;5083352;28;19924;-59
2022/09/19 05:06:51;;;;;;;;;;;;;;;;;;5093341;28;20439;-61
2022/09/19 05:09:22;;;;;;;;;;;;;;;;;;5081316;28;20392;-60
2022/09/19 05:11:49;;;;;;;;;;;;;;;;;;5077419;28;19967;-60
2022/09/19 05:14:17;;;;;;;;;;;;;;;;;;5083126;28;19924;-60
2022/09/19 05:16:45;;;;;;;;;;;;;;;;;;5072661;28;19924;-60
2022/09/19 05:19:12;;;;;;;;;;;;;;;;;;5082066;28;19924;-60
2022/09/19 05:21:38;;;;;;;;;;;;;;;;;;5093078;28;19924;-59
2022/09/19 05:24:06;;;;;;;;;;;;;;;;;;5084277;28;19925;-61
2022/09/19 05:26:33;;;;;;;;;;;;;;;;;;5072496;28;19970;-61
2022/09/19 05:29:00;;;;;;;;;;;;;;;;;;5078552;28;19924;-60
2022/09/19 05:31:26;;;;;;;;;;;;;;;;;;5092587;28;19924;-60
2022/09/19 05:33:53;;;;;;;;;;;;;;;;;;5083966;28;19928;-60
2022/09/19 05:36:20;;;;;;;;;;;;;;;;;;5092522;28;19931;-60
2022/09/19 05:38:47;;;;;;;;;;;;;;;;;;5090156;28;19924;-61
2022/09/19 05:41:16;;;;;;;;;;;;;;;;;;5092727;28;19924;-61
2022/09/19 05:43:43;;;;;;;;;;;;;;;;;;5091321;28;19931;-59
2022/09/19 05:46:09;;;;;;;;;;;;;;;;;;5078173;28;19925;-60
2022/09/19 05:48:37;;;;;;;;;;;;;;;;;;5084150;28;20005;-60
2022/09/19 05:51:04;;;;;;;;;;;;;;;;;;5092312;28;19994;-61
2022/09/19 05:56:16;;;;;;;;;;;;;;;;;;5072102;28;19948;-61
2022/09/19 05:58:42;;;;;;;;;;;;;;;;;;5073000;28;19924;-61
2022/09/19 06:01:09;;;;;;;;;;;;;;;;;;5073786;28;19932;-61
2022/09/19 06:03:38;;;;;;;;;;;;;;;;;;5083613;28;19928;-61
2022/09/19 06:06:08;;;;;;;;;;;;;;;;;;5092627;28;20262;-61
2022/09/19 06:08:35;;;;;;;;;;;;;;;;;;5079480;28;19924;-60
2022/09/19 06:11:02;;;;;;;;;;;;;;;;;;5072792;28;20385;-61
2022/09/19 06:14:13;;;;;;;;;;;;;;;;;;5073334;28;19932;-59
2022/09/19 06:16:17;;;;;;;;;;;;;;;;;;5071929;28;19924;-60
2022/09/19 06:18:43;;;;;;;;;;;;;;;;;;5091586;28;19924;-61
2022/09/19 06:21:10;;;;;;;;;;;;;;;;;;5082787;28;20384;-59
2022/09/19 06:23:36;;;;;;;;;;;;;;;;;;5073282;28;19924;-59
2022/09/19 06:26:03;;;;;;;;;;;;;;;;;;5071683;28;20347;-60
2022/09/19 06:28:31;;;;;;;;;;;;;;;;;;5089165;28;20444;-61
2022/09/19 06:31:01;;;;;;;;;;;;;;;;;;5051547;28;19979;-60
2022/09/19 06:33:28;;;;;;;;;;;;;;;;;;5059737;28;20291;-60
2022/09/19 06:35:56;;;;;;;;;;;;;;;;;;5072086;28;19929;-59
2022/09/19 06:38:22;;;;;;;;;;;;;;;;;;5071719;28;19925;-61
2022/09/19 06:40:49;;;;;;;;;;;;;;;;;;5087863;28;19924;-61
2022/09/19 06:43:16;;;;;;;;;;;;;;;;;;5091326;28;19924;-61
2022/09/19 06:45:44;;;;;;;;;;;;;;;;;;5090356;28;19924;-61
2022/09/19 06:48:10;;;;;;;;;;;;;;;;;;5082169;28;19928;-61
2022/09/19 06:50:37;;;;;;;;;;;;;;;;;;5072028;28;19928;-60
2022/09/19 06:53:04;;;;;;;;;;;;;;;;;;5071949;28;19931;-61
2022/09/19 06:55:30;;;;;;;;;;;;;;;;;;5068928;28;20393;-61
2022/09/19 06:57:58;;;;;;;;;;;;;;;;;;5051396;28;20325;-61
2022/09/19 07:00:26;;;;;;;;;;;;;;;;;;5065849;28;19931;-66
2022/09/19 07:02:59;;;;;;;;;;;;;;;;;;5090016;28;19928;-59
2022/09/19 07:05:26;;;;;;;;;;;;;;;;;;5084796;28;19928;-54
2022/09/19 07:07:53;;;;;;;;;;;;;;;;;;5074616;28;19929;-51
2022/09/19 07:10:20;;;;;;;;;;;;;;;;;;5069056;28;20297;-53
2022/09/19 07:12:55;;;;;;;;;;;;;;;;;;5091588;22;19970;-80
2022/09/19 07:15:21;;;;;;;;;;;;;;;;;;5044910;28;19925;-79
2022/09/19 07:17:48;;;;;;;;;;;;;;;;;;5054569;28;20359;-80
2022/09/19 07:20:16;;;;;;;;;;;;;;;;;;5038900;28;19960;-79
2022/09/19 07:22:43;;;;;;;;;;;;;;;;;;5037987;28;19928;-80
2022/09/19 07:25:09;;;;;;;;;;;;;;;;;;5030013;28;19989;-79
2022/09/19 07:27:36;;;;;;;;;;;;;;;;;;5028786;28;20032;-79
2022/09/19 07:30:03;;;;;;;;;;;;;;;;;;5046338;28;19947;-81
2022/09/19 07:32:29;;;;;;;;;;;;;;;;;;5061767;28;19925;-79
2022/09/19 07:34:56;;;;;;;;;;;;;;;;;;5052304;28;19925;-80
2022/09/19 07:37:24;;;;;;;;;;;;;;;;;;5047221;28;19964;-79
2022/09/19 07:39:51;;;;;;;;;;;;;;;;;;5042715;28;20376;-79
2022/09/19 07:42:20;;;;;;;;;;;;;;;;;;5038459;28;19952;-77
2022/09/19 07:44:46;;;;;;;;;;;;;;;;;;5037451;28;20012;-80
2022/09/19 07:50:02;;;;;;;;;;;;;;;;;;5027141;28;19925;-80
2022/09/19 07:52:30;;;;;;;;;;;;;;;;;;5039643;28;19925;-79
2022/09/19 07:54:56;;;;;;;;;;;;;;;;;;5050614;28;19924;-80
2022/09/19 07:57:24;;;;;;;;;;;;;;;;;;5060668;28;19933;-78
2022/09/19 07:59:50;;;;;;;;;;;;;;;;;;5056187;28;19925;-79
2022/09/19 08:02:17;;;;;;;;;;;;;;;;;;5053552;28;19925;-79
2022/09/19 08:04:43;;;;;;;;;;;;;;;;;;5045492;28;19979;-80
2022/09/19 08:07:10;;;;;;;;;;;;;;;;;;5037342;28;20375;-78
2022/09/19 08:09:38;;;;;;;;;;;;;;;;;;5038545;28;20376;-79
2022/09/19 08:12:05;;;;;;;;;;;;;;;;;;5038556;28;19925;-80
2022/09/19 08:14:32;;;;;;;;;;;;;;;;;;5038315;28;19925;-79
2022/09/19 08:17:00;;;;;;;;;;;;;;;;;;5038102;28;19925;-79
2022/09/19 08:19:27;;;;;;;;;;;;;;;;;;5036341;28;20004;-80
2022/09/19 08:21:54;;;;;;;;;;;;;;;;;;5037405;28;19929;-79
2022/09/19 08:24:21;;;;;;;;;;;;;;;;;;5036338;28;19976;-80
2022/09/19 08:26:50;;;;;;;;;;;;;;;;;;5038220;28;20456;-81
2022/09/19 08:29:17;;;;;;;;;;;;;;;;;;5037890;28;19971;-79
2022/09/19 08:31:43;;;;;;;;;;;;;;;;;;5037726;28;20336;-82
2022/09/19 08:34:10;;;;;;;;;;;;;;;;;;5037121;28;19925;-80
2022/09/19 08:36:39;;;;;;;;;;;;;;;;;;5038206;28;20011;-80
2022/09/19 08:39:05;;;;;;;;;;;;;;;;;;5038371;28;19963;-80
2022/09/19 08:41:39;;;;;;;;;;;;;;;;;;5039996;28;20347;-79
2022/09/19 08:44:11;;;;;;;;;;;;;;;;;;5038799;28;19925;-79
2022/09/19 08:46:43;;;;;;;;;;;;;;;;;;5039792;28;20012;-80
2022/09/19 08:49:12;;;;;;;;;;;;;;;;;;5038590;28;20015;-80
2022/09/19 08:51:47;;;;;;;;;;;;;;;;;;5042401;28;20292;-80
2022/09/19 08:54:16;;;;;;;;;;;;;;;;;;5037193;28;19951;-80
2022/09/19 08:56:43;;;;;;;;;;;;;;;;;;5036410;28;19925;-80
2022/09/19 08:59:13;;;;;;;;;;;;;;;;;;5035404;28;20323;-80
2022/09/19 09:01:40;;;;;;;;;;;;;;;;;;5034443;28;20350;-81
2022/09/19 09:04:19;;;;;;;;;;;;;;;;;;5051591;28;19996;-78
2022/09/19 09:06:53;;;;;;;;;;;;;;;;;;5036909;28;19987;-81
2022/09/19 09:09:22;;;;;;;;;;;;;;;;;;5034909;28;19925;-80
2022/09/19 09:11:56;;;;;;;;;;;;;;;;;;5039476;28;19925;-80
2022/09/19 09:14:28;;;;;;;;;;;;;;;;;;5038735;28;20430;-79
2022/09/19 09:17:01;;;;;;;;;;;;;;;;;;5017731;28;19929;-80
2022/09/19 09:19:38;;;;;;;;;;;;;;;;;;5036092;28;19925;-80
2022/09/19 09:22:10;;;;;;;;;;;;;;;;;;5034727;28;19933;-81
2022/09/19 09:24:39;;;;;;;;;;;;;;;;;;5034705;28;19933;-80
2022/09/19 09:27:11;;;;;;;;;;;;;;;;;;5035545;28;19925;-80
2022/09/19 09:29:41;;;;;;;;;;;;;;;;;;5035156;28;20001;-80
2022/09/19 09:32:14;;;;;;;;;;;;;;;;;;5035550;28;19925;-81
2022/09/19 09:34:43;;;;;;;;;;;;;;;;;;5034832;28;19975;-80
2022/09/19 09:37:20;;;;;;;;;;;;;;;;;;5041587;28;19955;-81
2022/09/19 09:39:59;;;;;;;;;;;;;;;;;;5039280;28;19956;-80
2022/09/19 09:42:27;;;;;;;;;;;;;;;;;;5040565;28;20459;-81
2022/09/19 09:44:59;;;;;;;;;;;;;;;;;;5046029;28;19940;-80
2022/09/19 09:47:32;;;;;;;;;;;;;;;;;;5049100;28;20000;-81
2022/09/19 09:50:07;;;;;;;;;;;;;;;;;;5044720;28;19932;-81
2022/09/19 09:52:42;;;;;;;;;;;;;;;;;;5042019;28;19925;-80
2022/09/19 09:58:19;;;;;;;;;;;;;;;;;;5024368;28;20406;-80
2022/09/19 10:03:38;;;;;;;;;;;;;;;;;;5034617;28;19936;-80
2022/09/19 10:06:09;;;;;;;;;;;;;;;;;;5039493;28;19936;-81
2022/09/19 10:08:39;;;;;;;;;;;;;;;;;;5035018;28;19936;-79
2022/09/19 10:11:09;;;;;;;;;;;;;;;;;;5046101;28;20021;-81
2022/09/19 10:13:46;;;;;;;;;;;;;;;;;;5046370;28;19933;-80
2022/09/19 10:16:17;;;;;;;;;;;;;;;;;;5037200;28;19932;-80
2022/09/19 10:18:46;;;;;;;;;;;;;;;;;;5035259;28;20590;-80
2022/09/19 10:21:13;;;;;;;;;;;;;;;;;;5037129;28;19925;-81
2022/09/19 10:23:42;;;;;;;;;;;;;;;;;;5036526;28;19925;-81
2022/09/19 10:26:15;;;;;;;;;;;;;;;;;;5035323;28;19961;-81
2022/09/19 10:28:46;;;;;;;;;;;;;;;;;;5035857;28;19925;-81
2022/09/19 10:31:23;;;;;;;;;;;;;;;;;;5036657;28;19971;-81
2022/09/19 10:33:50;;;;;;;;;;;;;;;;;;5031081;28;19976;-80
2022/09/19 10:36:19;;;;;;;;;;;;;;;;;;5035035;28;20304;-81
2022/09/19 10:38:50;;;;;;;;;;;;;;;;;;5035369;28;19925;-80
2022/09/19 10:41:20;;;;;;;;;;;;;;;;;;5034595;28;19931;-80
2022/09/19 10:43:48;;;;;;;;;;;;;;;;;;5036526;28;19925;-81
2022/09/19 10:46:16;;;;;;;;;;;;;;;;;;5046487;28;19925;-80
2022/09/19 10:48:50;;;;;;;;;;;;;;;;;;5045593;28;19965;-80
2022/09/19 10:51:17;;;;;;;;;;;;;;;;;;5044638;28;19996;-81
2022/09/19 10:53:45;;;;;;;;;;;;;;;;;;5037723;28;19979;-81
2022/09/19 10:56:22;;;;;;;;;;;;;;;;;;5040517;28;19987;-81
2022/09/19 10:58:49;;;;;;;;;;;;;;;;;;5041818;28;19932;-81
2022/09/19 11:01:20;;;;;;;;;;;;;;;;;;5041407;28;20047;-81
2022/09/19 11:03:59;;;;;;;;;;;;;;;;;;5044772;28;19925;-81
2022/09/19 11:06:25;;;;;;;;;;;;;;;;;;5044372;28;19924;-80
2022/09/19 11:08:54;;;;;;;;;;;;;;;;;;5046694;28;19932;-82
2022/09/19 11:11:22;;;;;;;;;;;;;;;;;;5051251;28;19932;-82
2022/09/19 11:14:06;;;;;;;;;;;;;;;;;;5039763;28;19972;-82
2022/09/19 11:16:37;;;;;;;;;;;;;;;;;;5039708;28;19926;-81
2022/09/19 11:19:17;;;;;;;;;;;;;;;;;;5039768;28;19932;-84
2022/09/19 11:21:50;;;;;;;;;;;;;;;;;;5060566;28;19932;-77
2022/09/19 11:24:33;;;;;;;;;;;;;;;;;;5057155;28;19947;-83
2022/09/19 11:27:13;;;;;;;;;;;;;;;;;;5040330;28;19925;-82
2022/09/19 11:29:53;;;;;;;;;;;;;;;;;;5023461;28;19925;-80
2022/09/19 11:32:32;;;;;;;;;;;;;;;;;;5039161;28;19925;-78
2022/09/19 11:35:03;;;;;;;;;;;;;;;;;;5039373;28;19925;-78
2022/09/19 11:37:41;;;;;;;;;;;;;;;;;;5043086;28;20387;-78
2022/09/19 11:40:21;;;;;;;;;;;;;;;;;;5057705;28;19928;-78
2022/09/19 11:42:54;;;;;;;;;;;;;;;;;;5050899;28;19925;-78
2022/09/19 11:45:22;;;;;;;;;;;;;;;;;;5043424;28;19948;-78
2022/09/19 11:48:00;;;;;;;;;;;;;;;;;;5036829;28;19925;-78
2022/09/19 11:50:33;;;;;;;;;;;;;;;;;;5035936;28;19971;-78
2022/09/19 11:53:07;;;;;;;;;;;;;;;;;;5043704;28;19931;-77
2022/09/19 11:55:37;;;;;;;;;;;;;;;;;;5030886;28;20288;-78
2022/09/19 11:58:07;;;;;;;;;;;;;;;;;;5034964;28;19932;-79
2022/09/19 12:00:37;;;;;;;;;;;;;;;;;;5050053;28;19924;-78
2022/09/19 12:03:17;;;;;;;;;;;;;;;;;;5037922;28;19925;-81
2022/09/19 12:05:53;;;;;;;;;;;;;;;;;;5036565;28;19935;-77
2022/09/19 12:08:26;;;;;;;;;;;;;;;;;;5035695;28;19971;-80
2022/09/19 12:11:01;;;;;;;;;;;;;;;;;;5034627;28;19925;-77
2022/09/19 12:13:31;;;;;;;;;;;;;;;;;;5036713;28;19969;-80
2022/09/19 12:16:01;;;;;;;;;;;;;;;;;;5042721;28;19925;-81
2022/09/19 12:18:29;;;;;;;;;;;;;;;;;;5041599;28;19980;-78
2022/09/19 12:21:00;;;;;;;;;;;;;;;;;;5035732;28;19936;-78
2022/09/19 12:26:17;;;;;;;;;;;;;;;;;;5035340;28;19932;-78
2022/09/19 12:28:45;;;;;;;;;;;;;;;;;;5034109;28;19964;-78
2022/09/19 12:31:12;;;;;;;;;;;;;;;;;;5033329;28;19932;-78
2022/09/19 12:33:41;;;;;;;;;;;;;;;;;;5033440;28;19925;-78
2022/09/19 12:36:20;;;;;;;;;;;;;;;;;;5033645;28;19925;-79
2022/09/19 12:38:49;;;;;;;;;;;;;;;;;;5032839;28;19936;-79
2022/09/19 12:41:19;;;;;;;;;;;;;;;;;;5025304;28;20422;-78
2022/09/19 12:43:55;;;;;;;;;;;;;;;;;;5042354;28;19987;-78
2022/09/19 12:46:39;;;;;;;;;;;;;;;;;;5045906;28;19913;-78
2022/09/19 12:49:12;;;;;;;;;;;;;;;;;;5040794;28;19936;-78
2022/09/19 12:51:46;;;;;;;;;;;;;;;;;;5035474;28;19925;-78
2022/09/19 12:54:16;;;;;;;;;;;;;;;;;;5034886;28;19971;-79
2022/09/19 12:56:46;;;;;;;;;;;;;;;;;;5039086;28;19971;-79
2022/09/19 12:59:16;;;;;;;;;;;;;;;;;;5041600;28;19926;-79
2022/09/19 13:01:45;;;;;;;;;;;;;;;;;;5035065;28;20019;-78
2022/09/19 13:04:21;;;;;;;;;;;;;;;;;;5034882;28;19925;-78
2022/09/19 13:06:52;;;;;;;;;;;;;;;;;;5037023;28;19975;-77
2022/09/19 13:09:21;;;;;;;;;;;;;;;;;;5036620;28;19939;-77
2022/09/19 13:11:49;;;;;;;;;;;;;;;;;;5036052;28;19925;-78
2022/09/19 13:14:17;;;;;;;;;;;;;;;;;;5036486;28;20461;-79
2022/09/19 13:24:57;;;;;;;;;;;;;;;;;;5030999;28;20130;-78
2022/09/19 13:27:24;;;;;;;;;;;;;;;;;;5044775;28;19925;-79
2022/09/19 13:29:53;;;;;;;;;;;;;;;;;;5037108;28;19948;-79
2022/09/19 13:32:34;;;;;;;;;;;;;;;;;;5033022;28;19925;-76
2022/09/19 13:35:03;;;;;;;;;;;;;;;;;;5031422;28;19925;-77
2022/09/19 13:37:50;;;;;;;;;;;;;;;;;;5034785;28;19929;-77
2022/09/19 13:40:23;;;;;;;;;;;;;;;;;;5034231;28;19929;-77
2022/09/19 13:42:51;;;;;;;;;;;;;;;;;;5035127;28;19925;-78
2022/09/19 13:45:23;;;;;;;;;;;;;;;;;;5034219;28;19925;-78
2022/09/19 13:47:54;;;;;;;;;;;;;;;;;;5040375;28;20296;-78
2022/09/19 13:50:23;;;;;;;;;;;;;;;;;;5035965;28;20304;-78
2022/09/19 13:53:01;;;;;;;;;;;;;;;;;;5033709;28;20081;-78
2022/09/19 13:55:33;;;;;;;;;;;;;;;;;;5034550;28;20407;-78
2022/09/19 13:58:28;;;;;;;;;;;;;;;;;;5033888;28;19926;-77
2022/09/19 14:01:07;;;;;;;;;;;;;;;;;;5033793;28;19948;-77
2022/09/19 14:03:36;;;;;;;;;;;;;;;;;;5033361;28;19948;-78
2022/09/19 14:06:20;;;;;;;;;;;;;;;;;;5034337;28;19929;-78
2022/09/19 14:08:47;;;;;;;;;;;;;;;;;;5035035;28;21495;-79
2022/09/19 14:11:18;;;;;;;;;;;;;;;;;;5034718;28;19925;-77
2022/09/19 14:13:45;;;;;;;;;;;;;;;;;;5017202;28;19926;-79
2022/09/19 14:16:36;;;;;;;;;;;;;;;;;;5035788;28;19925;-78
2022/09/19 14:19:03;;;;;;;;;;;;;;;;;;5034509;28;19925;-79
2022/09/19 14:21:52;;;;;;;;;;;;;;;;;;5034800;28;19925;-78
2022/09/19 14:24:21;;;;;;;;;;;;;;;;;;5034649;28;19925;-79
2022/09/19 14:26:53;;;;;;;;;;;;;;;;;;5038812;28;19935;-79
2022/09/19 14:29:24;;;;;;;;;;;;;;;;;;5050505;28;19925;-78
2022/09/19 14:31:58;;;;;;;;;;;;;;;;;;5039936;28;20299;-78
2022/09/19 14:34:49;;;;;;;;;;;;;;;;;;5060567;28;19920;-78
2022/09/19 14:37:33;;;;;;;;;;;;;;;;;;5063680;28;19929;-78
2022/09/19 14:40:19;;;;;;;;;;;;;;;;;;5045057;28;20431;-78
2022/09/19 14:42:58;;;;;;;;;;;;;;;;;;5043860;28;19925;-78
2022/09/19 14:45:30;;;;;;;;;;;;;;;;;;5032294;28;20008;-77
2022/09/19 14:47:58;;;;;;;;;;;;;;;;;;5038334;28;19925;-79
2022/09/19 14:50:27;;;;;;;;;;;;;;;;;;5038958;28;19929;-79
2022/09/19 14:52:59;;;;;;;;;;;;;;;;;;5038367;28;19925;-78
2022/09/19 14:55:27;;;;;;;;;;;;;;;;;;5044302;28;19931;-79
2022/09/19 14:57:55;;;;;;;;;;;;;;;;;;5045592;28;19925;-79
2022/09/19 15:00:23;;;;;;;;;;;;;;;;;;5038045;28;19932;-79
2022/09/19 15:02:50;;;;;;;;;;;;;;;;;;5049779;22;19926;-79
2022/09/19 15:05:18;;;;;;;;;;;;;;;;;;5041446;28;19931;-80
2022/09/19 15:07:44;;;;;;;;;;;;;;;;;;5048410;28;19976;-78
2022/09/19 15:10:21;;;;;;;;;;;;;;;;;;5059283;28;20465;-81
2022/09/19 15:12:51;;;;;;;;;;;;;;;;;;5057375;28;19924;-80
2022/09/19 15:15:19;;;;;;;;;;;;;;;;;;5062214;28;19929;-79
2022/09/19 15:17:46;;;;;;;;;;;;;;;;;;5071533;28;19932;-79
2022/09/19 15:20:16;;;;;;;;;;;;;;;;;;5070798;28;19943;-81
2022/09/19 15:22:51;;;;;;;;;;;;;;;;;;5065658;28;19967;-81
2022/09/19 15:25:21;;;;;;;;;;;;;;;;;;5050202;28;19925;-78
2022/09/19 15:27:49;;;;;;;;;;;;;;;;;;5049182;28;19929;-79
2022/09/19 15:30:20;;;;;;;;;;;;;;;;;;5045740;28;19925;-79
2022/09/19 15:32:50;;;;;;;;;;;;;;;;;;5038810;28;19925;-81
2022/09/19 15:35:17;;;;;;;;;;;;;;;;;;5051612;28;19925;-79
2022/09/19 15:37:45;;;;;;;;;;;;;;;;;;5056690;28;19933;-78
2022/09/19 15:40:13;;;;;;;;;;;;;;;;;;5055000;28;19925;-78
2022/09/19 15:42:41;;;;;;;;;;;;;;;;;;5054607;28;19948;-78
2022/09/19 15:45:29;;;;;;;;;;;;;;;;;;5052755;28;20015;-79
2022/09/19 15:47:58;;;;;;;;;;;;;;;;;;5035057;28;20443;-79
2022/09/19 15:50:26;;;;;;;;;;;;;;;;;;5047659;28;19929;-79
2022/09/19 15:52:53;;;;;;;;;;;;;;;;;;5055626;28;20013;-78
2022/09/19 15:55:22;;;;;;;;;;;;;;;;;;5054070;28;19924;-77
2022/09/19 15:57:50;;;;;;;;;;;;;;;;;;5053196;28;20015;-79
2022/09/19 16:00:19;;;;;;;;;;;;;;;;;;5051377;28;19955;-77
2022/09/19 16:02:47;;;;;;;;;;;;;;;;;;5042388;28;19979;-79
2022/09/19 16:05:17;;;;;;;;;;;;;;;;;;5048333;28;20384;-78
2022/09/19 16:10:33;;;;;;;;;;;;;;;;;;5057438;28;19947;-77
2022/09/19 16:13:00;;;;;;;;;;;;;;;;;;5064953;28;19925;-79
2022/09/19 16:15:30;;;;;;;;;;;;;;;;;;5072049;28;19935;-77
2022/09/19 16:18:07;;;;;;;;;;;;;;;;;;5065727;28;20025;-79
2022/09/19 16:20:39;;;;;;;;;;;;;;;;;;5052708;28;19929;-79
2022/09/19 16:23:06;;;;;;;;;;;;;;;;;;5049821;28;19933;-78
2022/09/19 16:25:39;;;;;;;;;;;;;;;;;;5049122;28;19928;-78
2022/09/19 16:28:09;;;;;;;;;;;;;;;;;;5053667;28;20342;-77
2022/09/19 16:30:48;;;;;;;;;;;;;;;;;;5053037;28;19924;-78
2022/09/19 16:33:14;;;;;;;;;;;;;;;;;;5042507;28;19929;-77
2022/09/19 16:35:42;;;;;;;;;;;;;;;;;;5055673;28;19925;-79
2022/09/19 16:38:09;;;;;;;;;;;;;;;;;;5053930;28;19988;-77
2022/09/19 16:40:35;;;;;;;;;;;;;;;;;;5054463;28;19924;-78
2022/09/19 16:43:17;;;;;;;;;;;;;;;;;;5054187;28;19964;-78
2022/09/19 16:45:44;;;;;;;;;;;;;;;;;;5049622;28;19924;-78
2022/09/19 16:48:10;;;;;;;;;;;;;;;;;;5051164;28;19990;-78
2022/09/19 16:50:39;;;;;;;;;;;;;;;;;;5044741;28;20399;-78
2022/09/19 16:53:10;;;;;;;;;;;;;;;;;;5040976;28;20243;-78
2022/09/19 16:55:38;;;;;;;;;;;;;;;;;;5035013;28;19936;-79
2022/09/19 16:58:08;;;;;;;;;;;;;;;;;;5034320;28;19935;-79
2022/09/19 17:00:35;;;;;;;;;;;;;;;;;;5052933;28;19940;-79
2022/09/19 17:03:01;;;;;;;;;;;;;;;;;;5052524;28;19986;-78
2022/09/19 17:05:32;;;;;;;;;;;;;;;;;;5053162;28;19932;-79
2022/09/19 17:07:59;;;;;;;;;;;;;;;;;;5059318;28;19925;-80
2022/09/19 17:10:29;;;;;;;;;;;;;;;;;;5059147;28;19944;-80
2022/09/19 17:12:56;;;;;;;;;;;;;;;;;;5058127;28;20012;-77
2022/09/19 17:15:32;;;;;;;;;;;;;;;;;;5052020;28;20500;-78
2022/09/19 17:17:58;;;;;;;;;;;;;;;;;;5040644;28;19933;-80
2022/09/19 17:20:25;;;;;;;;;;;;;;;;;;5056188;28;19929;-78
2022/09/19 17:22:51;;;;;;;;;;;;;;;;;;5059503;28;19935;-79
2022/09/19 17:25:21;;;;;;;;;;;;;;;;;;5059007;28;19924;-78
2022/09/19 17:27:48;;;;;;;;;;;;;;;;;;5059032;28;19924;-78
2022/09/19 17:30:15;;;;;;;;;;;;;;;;;;5059808;28;19924;-79
2022/09/19 17:32:46;;;;;;;;;;;;;;;;;;5058041;28;19925;-79
2022/09/19 17:35:14;;;;;;;;;;;;;;;;;;5058115;28;20391;-78